sensor_id;sensor_type;location;lat;lon;timestamp;P1;durP1;ratioP1;P2;durP2;ratioP2
42840;SDS011;28491;46.898;7.660;2022-12-18T00:02:11;29.98;;;18.50;;
42840;SDS011;28491;46.898;7.660;2022-12-18T00:04:37;31.38;;;17.55;;
42840;SDS011;28491;46.898;7.660;2022-12-18T00:07:03;32.08;;;18.33;;
42840;SDS011;28491;46.898;7.660;2022-12-18T00:09:28;29.65;;;17.15;;
42840;SDS011;28491;46.898;7.660;2022-12-18T00:11:54;33.08;;;18.80;;
42840;SDS011;28491;46.898;7.660;2022-12-18T00:14:19;29.90;;;16.77;;
42840;SDS011;28491;46.898;7.660;2022-12-18T00:16:45;31.02;;;17.35;;
42840;SDS011;28491;46.898;7.660;2022-12-18T00:19:12;37.50;;;19.25;;
42840;SDS011;28491;46.898;7.660;2022-12-18T00:21:38;32.47;;;18.60;;
42840;SDS011;28491;46.898;7.660;2022-12-18T00:24:04;32.55;;;17.17;;
42840;SDS011;28491;46.898;7.660;2022-12-18T00:26:30;37.40;;;19.15;;
42840;SDS011;28491;46.898;7.660;2022-12-18T00:28:58;29.55;;;15.68;;
42840;SDS011;28491;46.898;7.660;2022-12-18T00:31:25;36.33;;;18.70;;
42840;SDS011;28491;46.898;7.660;2022-12-18T00:33:51;31.00;;;17.67;;
42840;SDS011;28491;46.898;7.660;2022-12-18T00:36:28;30.40;;;16.95;;
42840;SDS011;28491;46.898;7.660;2022-12-18T00:38:56;30.80;;;18.13;;
42840;SDS011;28491;46.898;7.660;2022-12-18T00:41:23;31.92;;;18.83;;
42840;SDS011;28491;46.898;7.660;2022-12-18T00:44:09;30.00;;;16.92;;
42840;SDS011;28491;46.898;7.660;2022-12-18T00:46:36;31.98;;;17.17;;
42840;SDS011;28491;46.898;7.660;2022-12-18T00:49:02;33.22;;;19.45;;
42840;SDS011;28491;46.898;7.660;2022-12-18T00:51:28;34.85;;;19.92;;
42840;SDS011;28491;46.898;7.660;2022-12-18T00:53:54;35.97;;;16.98;;
42840;SDS011;28491;46.898;7.660;2022-12-18T00:56:20;31.88;;;16.88;;
42840;SDS011;28491;46.898;7.660;2022-12-18T00:58:47;40.00;;;20.50;;
42840;SDS011;28491;46.898;7.660;2022-12-18T01:01:13;34.67;;;19.55;;
42840;SDS011;28491;46.898;7.660;2022-12-18T01:03:38;26.95;;;15.45;;
42840;SDS011;28491;46.898;7.660;2022-12-18T01:06:07;32.13;;;17.05;;
42840;SDS011;28491;46.898;7.660;2022-12-18T01:08:34;34.97;;;19.40;;
42840;SDS011;28491;46.898;7.660;2022-12-18T01:11:00;31.67;;;17.60;;
42840;SDS011;28491;46.898;7.660;2022-12-18T01:13:26;31.70;;;16.98;;
42840;SDS011;28491;46.898;7.660;2022-12-18T01:15:51;40.47;;;18.25;;
42840;SDS011;28491;46.898;7.660;2022-12-18T01:18:17;32.05;;;16.45;;
42840;SDS011;28491;46.898;7.660;2022-12-18T01:20:43;30.60;;;17.17;;
42840;SDS011;28491;46.898;7.660;2022-12-18T01:23:08;37.70;;;16.77;;
42840;SDS011;28491;46.898;7.660;2022-12-18T01:25:35;31.35;;;17.27;;
42840;SDS011;28491;46.898;7.660;2022-12-18T01:28:01;34.28;;;17.98;;
42840;SDS011;28491;46.898;7.660;2022-12-18T01:30:27;35.00;;;17.63;;
42840;SDS011;28491;46.898;7.660;2022-12-18T01:32:52;34.90;;;16.42;;
42840;SDS011;28491;46.898;7.660;2022-12-18T01:35:18;32.65;;;16.10;;
42840;SDS011;28491;46.898;7.660;2022-12-18T01:37:44;32.80;;;18.38;;
42840;SDS011;28491;46.898;7.660;2022-12-18T01:40:10;29.52;;;17.58;;
42840;SDS011;28491;46.898;7.660;2022-12-18T01:42:35;35.90;;;17.92;;
42840;SDS011;28491;46.898;7.660;2022-12-18T01:47:40;35.20;;;18.60;;
42840;SDS011;28491;46.898;7.660;2022-12-18T01:50:10;29.80;;;16.95;;
42840;SDS011;28491;46.898;7.660;2022-12-18T01:52:36;34.25;;;18.40;;
42840;SDS011;28491;46.898;7.660;2022-12-18T01:55:07;31.13;;;17.15;;
42840;SDS011;28491;46.898;7.660;2022-12-18T01:57:35;32.83;;;16.77;;
42840;SDS011;28491;46.898;7.660;2022-12-18T02:00:04;32.25;;;15.77;;
42840;SDS011;28491;46.898;7.660;2022-12-18T02:02:38;33.83;;;19.55;;
42840;SDS011;28491;46.898;7.660;2022-12-18T02:05:05;32.90;;;16.25;;
42840;SDS011;28491;46.898;7.660;2022-12-18T02:15:33;34.65;;;18.92;;
42840;SDS011;28491;46.898;7.660;2022-12-18T02:18:14;33.67;;;17.38;;
42840;SDS011;28491;46.898;7.660;2022-12-18T02:20:46;37.60;;;18.92;;
42840;SDS011;28491;46.898;7.660;2022-12-18T02:28:47;30.40;;;16.75;;
42840;SDS011;28491;46.898;7.660;2022-12-18T02:31:39;38.72;;;16.92;;
42840;SDS011;28491;46.898;7.660;2022-12-18T02:34:12;32.92;;;17.92;;
42840;SDS011;28491;46.898;7.660;2022-12-18T02:36:40;32.40;;;17.75;;
42840;SDS011;28491;46.898;7.660;2022-12-18T02:39:07;36.53;;;18.40;;
42840;SDS011;28491;46.898;7.660;2022-12-18T02:41:36;32.60;;;19.60;;
42840;SDS011;28491;46.898;7.660;2022-12-18T02:44:06;31.60;;;18.20;;
42840;SDS011;28491;46.898;7.660;2022-12-18T02:46:43;31.70;;;16.67;;
42840;SDS011;28491;46.898;7.660;2022-12-18T02:57:25;32.72;;;17.55;;
42840;SDS011;28491;46.898;7.660;2022-12-18T03:03:06;32.42;;;15.68;;
42840;SDS011;28491;46.898;7.660;2022-12-18T03:05:50;28.42;;;15.13;;
42840;SDS011;28491;46.898;7.660;2022-12-18T03:08:21;34.13;;;20.20;;
42840;SDS011;28491;46.898;7.660;2022-12-18T03:11:07;30.60;;;16.70;;
42840;SDS011;28491;46.898;7.660;2022-12-18T03:13:36;31.83;;;17.13;;
42840;SDS011;28491;46.898;7.660;2022-12-18T03:16:10;34.13;;;18.25;;
42840;SDS011;28491;46.898;7.660;2022-12-18T03:21:11;36.30;;;19.90;;
42840;SDS011;28491;46.898;7.660;2022-12-18T03:23:44;37.50;;;21.48;;
42840;SDS011;28491;46.898;7.660;2022-12-18T03:26:12;31.42;;;17.88;;
42840;SDS011;28491;46.898;7.660;2022-12-18T03:28:42;33.88;;;19.20;;
42840;SDS011;28491;46.898;7.660;2022-12-18T03:31:12;39.25;;;21.20;;
42840;SDS011;28491;46.898;7.660;2022-12-18T03:33:52;43.00;;;22.90;;
42840;SDS011;28491;46.898;7.660;2022-12-18T03:36:19;42.80;;;21.95;;
42840;SDS011;28491;46.898;7.660;2022-12-18T03:38:44;54.20;;;24.02;;
42840;SDS011;28491;46.898;7.660;2022-12-18T03:43:48;52.03;;;26.58;;
42840;SDS011;28491;46.898;7.660;2022-12-18T03:46:27;47.25;;;25.70;;
42840;SDS011;28491;46.898;7.660;2022-12-18T03:49:01;50.60;;;25.85;;
42840;SDS011;28491;46.898;7.660;2022-12-18T03:54:11;46.33;;;24.02;;
42840;SDS011;28491;46.898;7.660;2022-12-18T03:56:42;56.40;;;27.15;;
42840;SDS011;28491;46.898;7.660;2022-12-18T03:59:13;44.75;;;24.63;;
42840;SDS011;28491;46.898;7.660;2022-12-18T04:01:42;50.35;;;26.63;;
42840;SDS011;28491;46.898;7.660;2022-12-18T04:04:11;42.35;;;24.35;;
42840;SDS011;28491;46.898;7.660;2022-12-18T04:06:38;41.58;;;22.20;;
42840;SDS011;28491;46.898;7.660;2022-12-18T04:09:04;44.92;;;24.38;;
42840;SDS011;28491;46.898;7.660;2022-12-18T04:11:30;44.78;;;23.85;;
42840;SDS011;28491;46.898;7.660;2022-12-18T04:13:57;45.80;;;23.65;;
42840;SDS011;28491;46.898;7.660;2022-12-18T04:16:26;45.25;;;22.67;;
42840;SDS011;28491;46.898;7.660;2022-12-18T04:18:52;46.85;;;22.02;;
42840;SDS011;28491;46.898;7.660;2022-12-18T04:21:18;43.13;;;22.33;;
42840;SDS011;28491;46.898;7.660;2022-12-18T04:23:44;48.20;;;24.60;;
42840;SDS011;28491;46.898;7.660;2022-12-18T04:26:09;41.80;;;22.00;;
42840;SDS011;28491;46.898;7.660;2022-12-18T04:28:35;42.13;;;23.42;;
42840;SDS011;28491;46.898;7.660;2022-12-18T04:31:01;38.83;;;22.08;;
42840;SDS011;28491;46.898;7.660;2022-12-18T04:33:26;35.53;;;19.83;;
42840;SDS011;28491;46.898;7.660;2022-12-18T04:35:52;39.53;;;21.70;;
42840;SDS011;28491;46.898;7.660;2022-12-18T04:38:18;40.35;;;21.05;;
42840;SDS011;28491;46.898;7.660;2022-12-18T04:40:43;36.47;;;20.42;;
42840;SDS011;28491;46.898;7.660;2022-12-18T04:43:09;41.85;;;22.52;;
42840;SDS011;28491;46.898;7.660;2022-12-18T04:45:34;38.15;;;21.50;;
42840;SDS011;28491;46.898;7.660;2022-12-18T04:48:01;42.13;;;23.08;;
42840;SDS011;28491;46.898;7.660;2022-12-18T04:50:27;38.40;;;21.13;;
42840;SDS011;28491;46.898;7.660;2022-12-18T04:52:53;39.40;;;20.42;;
42840;SDS011;28491;46.898;7.660;2022-12-18T04:55:19;36.88;;;18.65;;
42840;SDS011;28491;46.898;7.660;2022-12-18T04:57:45;36.03;;;19.70;;
42840;SDS011;28491;46.898;7.660;2022-12-18T05:00:11;34.63;;;17.35;;
42840;SDS011;28491;46.898;7.660;2022-12-18T05:02:37;33.10;;;18.23;;
42840;SDS011;28491;46.898;7.660;2022-12-18T05:05:03;31.30;;;17.17;;
42840;SDS011;28491;46.898;7.660;2022-12-18T05:07:29;33.30;;;17.48;;
42840;SDS011;28491;46.898;7.660;2022-12-18T05:09:54;29.80;;;17.60;;
42840;SDS011;28491;46.898;7.660;2022-12-18T05:12:20;34.25;;;18.83;;
42840;SDS011;28491;46.898;7.660;2022-12-18T05:14:45;33.08;;;16.63;;
42840;SDS011;28491;46.898;7.660;2022-12-18T05:17:11;38.70;;;19.55;;
42840;SDS011;28491;46.898;7.660;2022-12-18T05:19:36;38.22;;;18.38;;
42840;SDS011;28491;46.898;7.660;2022-12-18T05:22:03;31.85;;;18.95;;
42840;SDS011;28491;46.898;7.660;2022-12-18T05:24:29;37.85;;;20.05;;
42840;SDS011;28491;46.898;7.660;2022-12-18T05:26:54;36.22;;;20.92;;
42840;SDS011;28491;46.898;7.660;2022-12-18T05:29:20;32.85;;;17.65;;
42840;SDS011;28491;46.898;7.660;2022-12-18T05:31:45;33.42;;;19.25;;
42840;SDS011;28491;46.898;7.660;2022-12-18T05:34:11;35.00;;;19.92;;
42840;SDS011;28491;46.898;7.660;2022-12-18T05:36:36;29.88;;;16.50;;
42840;SDS011;28491;46.898;7.660;2022-12-18T05:39:02;38.10;;;19.92;;
42840;SDS011;28491;46.898;7.660;2022-12-18T05:41:28;31.50;;;17.13;;
42840;SDS011;28491;46.898;7.660;2022-12-18T05:43:53;34.65;;;18.73;;
42840;SDS011;28491;46.898;7.660;2022-12-18T05:46:19;38.92;;;21.83;;
42840;SDS011;28491;46.898;7.660;2022-12-18T05:48:45;37.90;;;18.80;;
42840;SDS011;28491;46.898;7.660;2022-12-18T05:51:11;36.95;;;20.50;;
42840;SDS011;28491;46.898;7.660;2022-12-18T05:53:39;33.85;;;19.02;;
42840;SDS011;28491;46.898;7.660;2022-12-18T05:56:07;34.22;;;18.48;;
42840;SDS011;28491;46.898;7.660;2022-12-18T05:58:34;34.27;;;19.40;;
42840;SDS011;28491;46.898;7.660;2022-12-18T06:01:10;38.47;;;20.08;;
42840;SDS011;28491;46.898;7.660;2022-12-18T06:03:36;34.60;;;18.40;;
42840;SDS011;28491;46.898;7.660;2022-12-18T06:06:02;33.97;;;19.35;;
42840;SDS011;28491;46.898;7.660;2022-12-18T06:08:27;34.80;;;18.17;;
42840;SDS011;28491;46.898;7.660;2022-12-18T06:10:53;39.10;;;17.55;;
42840;SDS011;28491;46.898;7.660;2022-12-18T06:13:19;34.97;;;19.35;;
42840;SDS011;28491;46.898;7.660;2022-12-18T06:15:45;33.78;;;17.83;;
42840;SDS011;28491;46.898;7.660;2022-12-18T06:18:10;38.83;;;21.45;;
42840;SDS011;28491;46.898;7.660;2022-12-18T06:20:36;36.88;;;19.90;;
42840;SDS011;28491;46.898;7.660;2022-12-18T06:23:04;36.10;;;20.13;;
42840;SDS011;28491;46.898;7.660;2022-12-18T06:25:30;38.80;;;19.20;;
42840;SDS011;28491;46.898;7.660;2022-12-18T06:27:56;37.78;;;19.25;;
42840;SDS011;28491;46.898;7.660;2022-12-18T06:30:22;26.85;;;16.05;;
42840;SDS011;28491;46.898;7.660;2022-12-18T06:32:48;41.30;;;21.98;;
42840;SDS011;28491;46.898;7.660;2022-12-18T06:35:14;40.78;;;20.80;;
42840;SDS011;28491;46.898;7.660;2022-12-18T06:37:40;40.10;;;22.30;;
42840;SDS011;28491;46.898;7.660;2022-12-18T06:40:05;38.97;;;19.73;;
42840;SDS011;28491;46.898;7.660;2022-12-18T06:42:31;32.58;;;19.55;;
42840;SDS011;28491;46.898;7.660;2022-12-18T06:44:57;38.20;;;20.70;;
42840;SDS011;28491;46.898;7.660;2022-12-18T06:47:23;34.42;;;19.30;;
42840;SDS011;28491;46.898;7.660;2022-12-18T06:49:48;34.03;;;16.92;;
42840;SDS011;28491;46.898;7.660;2022-12-18T06:52:14;41.78;;;20.63;;
42840;SDS011;28491;46.898;7.660;2022-12-18T06:54:41;30.02;;;17.25;;
42840;SDS011;28491;46.898;7.660;2022-12-18T06:57:06;40.40;;;19.98;;
42840;SDS011;28491;46.898;7.660;2022-12-18T06:59:32;36.63;;;19.23;;
42840;SDS011;28491;46.898;7.660;2022-12-18T07:01:57;35.75;;;21.85;;
42840;SDS011;28491;46.898;7.660;2022-12-18T07:04:27;36.17;;;19.48;;
42840;SDS011;28491;46.898;7.660;2022-12-18T07:06:56;36.53;;;19.52;;
42840;SDS011;28491;46.898;7.660;2022-12-18T07:09:22;35.28;;;19.23;;
42840;SDS011;28491;46.898;7.660;2022-12-18T07:11:48;38.10;;;20.38;;
42840;SDS011;28491;46.898;7.660;2022-12-18T07:14:14;40.90;;;21.90;;
42840;SDS011;28491;46.898;7.660;2022-12-18T07:16:39;37.72;;;20.63;;
42840;SDS011;28491;46.898;7.660;2022-12-18T07:19:05;42.30;;;20.63;;
42840;SDS011;28491;46.898;7.660;2022-12-18T07:21:31;38.25;;;21.98;;
42840;SDS011;28491;46.898;7.660;2022-12-18T07:23:56;39.00;;;20.70;;
42840;SDS011;28491;46.898;7.660;2022-12-18T07:26:22;41.88;;;21.98;;
42840;SDS011;28491;46.898;7.660;2022-12-18T07:28:48;40.30;;;20.70;;
42840;SDS011;28491;46.898;7.660;2022-12-18T07:31:16;36.45;;;18.73;;
42840;SDS011;28491;46.898;7.660;2022-12-18T07:33:44;42.95;;;21.77;;
42840;SDS011;28491;46.898;7.660;2022-12-18T07:36:10;40.38;;;20.70;;
42840;SDS011;28491;46.898;7.660;2022-12-18T07:38:36;41.08;;;19.85;;
42840;SDS011;28491;46.898;7.660;2022-12-18T07:41:06;34.05;;;20.30;;
42840;SDS011;28491;46.898;7.660;2022-12-18T07:43:33;35.35;;;19.33;;
42840;SDS011;28491;46.898;7.660;2022-12-18T07:45:59;37.60;;;18.17;;
42840;SDS011;28491;46.898;7.660;2022-12-18T07:48:25;38.53;;;19.58;;
42840;SDS011;28491;46.898;7.660;2022-12-18T07:50:52;39.47;;;19.80;;
42840;SDS011;28491;46.898;7.660;2022-12-18T07:53:17;35.10;;;19.60;;
42840;SDS011;28491;46.898;7.660;2022-12-18T07:55:43;34.40;;;18.92;;
42840;SDS011;28491;46.898;7.660;2022-12-18T07:58:08;38.03;;;19.35;;
42840;SDS011;28491;46.898;7.660;2022-12-18T08:00:34;35.17;;;17.95;;
42840;SDS011;28491;46.898;7.660;2022-12-18T08:03:00;32.38;;;18.15;;
42840;SDS011;28491;46.898;7.660;2022-12-18T08:05:26;34.97;;;17.80;;
42840;SDS011;28491;46.898;7.660;2022-12-18T08:07:52;32.13;;;18.20;;
42840;SDS011;28491;46.898;7.660;2022-12-18T08:10:18;30.67;;;17.23;;
42840;SDS011;28491;46.898;7.660;2022-12-18T08:12:44;33.10;;;19.15;;
42840;SDS011;28491;46.898;7.660;2022-12-18T08:15:10;33.55;;;16.27;;
42840;SDS011;28491;46.898;7.660;2022-12-18T08:17:36;27.58;;;16.55;;
42840;SDS011;28491;46.898;7.660;2022-12-18T08:20:01;27.80;;;16.08;;
42840;SDS011;28491;46.898;7.660;2022-12-18T08:22:27;29.42;;;15.52;;
42840;SDS011;28491;46.898;7.660;2022-12-18T08:24:52;25.90;;;15.52;;
42840;SDS011;28491;46.898;7.660;2022-12-18T08:27:18;31.02;;;17.42;;
42840;SDS011;28491;46.898;7.660;2022-12-18T08:29:43;26.17;;;15.73;;
42840;SDS011;28491;46.898;7.660;2022-12-18T08:32:09;25.85;;;14.48;;
42840;SDS011;28491;46.898;7.660;2022-12-18T08:34:35;27.15;;;15.20;;
42840;SDS011;28491;46.898;7.660;2022-12-18T08:37:00;28.05;;;15.80;;
42840;SDS011;28491;46.898;7.660;2022-12-18T08:39:26;30.08;;;17.13;;
42840;SDS011;28491;46.898;7.660;2022-12-18T08:41:51;28.45;;;16.73;;
42840;SDS011;28491;46.898;7.660;2022-12-18T08:44:35;25.30;;;15.45;;
42840;SDS011;28491;46.898;7.660;2022-12-18T08:47:04;29.17;;;15.00;;
42840;SDS011;28491;46.898;7.660;2022-12-18T08:49:30;28.17;;;15.23;;
42840;SDS011;28491;46.898;7.660;2022-12-18T08:51:56;30.65;;;16.65;;
42840;SDS011;28491;46.898;7.660;2022-12-18T08:54:22;24.45;;;14.55;;
42840;SDS011;28491;46.898;7.660;2022-12-18T08:56:48;23.48;;;15.43;;
42840;SDS011;28491;46.898;7.660;2022-12-18T08:59:14;24.98;;;14.02;;
42840;SDS011;28491;46.898;7.660;2022-12-18T09:01:41;44.63;;;26.70;;
42840;SDS011;28491;46.898;7.660;2022-12-18T09:04:07;27.75;;;15.75;;
42840;SDS011;28491;46.898;7.660;2022-12-18T09:06:36;25.70;;;14.60;;
42840;SDS011;28491;46.898;7.660;2022-12-18T09:09:03;32.03;;;17.25;;
42840;SDS011;28491;46.898;7.660;2022-12-18T09:11:29;30.00;;;16.77;;
42840;SDS011;28491;46.898;7.660;2022-12-18T09:13:56;34.55;;;17.67;;
42840;SDS011;28491;46.898;7.660;2022-12-18T09:16:22;32.40;;;17.83;;
42840;SDS011;28491;46.898;7.660;2022-12-18T09:18:49;30.23;;;18.13;;
42840;SDS011;28491;46.898;7.660;2022-12-18T09:21:16;29.88;;;16.35;;
42840;SDS011;28491;46.898;7.660;2022-12-18T09:23:43;28.17;;;15.13;;
42840;SDS011;28491;46.898;7.660;2022-12-18T09:26:13;22.27;;;13.75;;
42840;SDS011;28491;46.898;7.660;2022-12-18T09:28:39;21.63;;;13.18;;
42840;SDS011;28491;46.898;7.660;2022-12-18T09:31:05;26.73;;;16.25;;
42840;SDS011;28491;46.898;7.660;2022-12-18T09:33:32;31.92;;;16.95;;
42840;SDS011;28491;46.898;7.660;2022-12-18T09:36:00;28.95;;;17.60;;
42840;SDS011;28491;46.898;7.660;2022-12-18T09:38:27;26.50;;;15.50;;
42840;SDS011;28491;46.898;7.660;2022-12-18T09:40:53;23.75;;;14.07;;
42840;SDS011;28491;46.898;7.660;2022-12-18T09:43:48;24.10;;;13.23;;
42840;SDS011;28491;46.898;7.660;2022-12-18T09:46:17;26.98;;;15.13;;
42840;SDS011;28491;46.898;7.660;2022-12-18T09:48:50;25.45;;;13.77;;
42840;SDS011;28491;46.898;7.660;2022-12-18T09:51:21;31.60;;;14.80;;
42840;SDS011;28491;46.898;7.660;2022-12-18T09:53:52;23.83;;;13.98;;
42840;SDS011;28491;46.898;7.660;2022-12-18T09:56:37;22.85;;;14.45;;
42840;SDS011;28491;46.898;7.660;2022-12-18T09:59:09;21.73;;;12.73;;
42840;SDS011;28491;46.898;7.660;2022-12-18T10:01:47;25.88;;;15.60;;
42840;SDS011;28491;46.898;7.660;2022-12-18T10:04:13;26.55;;;15.68;;
42840;SDS011;28491;46.898;7.660;2022-12-18T10:06:41;30.48;;;15.88;;
42840;SDS011;28491;46.898;7.660;2022-12-18T10:09:34;20.02;;;11.68;;
42840;SDS011;28491;46.898;7.660;2022-12-18T10:17:55;20.92;;;11.25;;
42840;SDS011;28491;46.898;7.660;2022-12-18T10:25:59;16.10;;;10.73;;
42840;SDS011;28491;46.898;7.660;2022-12-18T10:28:35;20.45;;;12.98;;
42840;SDS011;28491;46.898;7.660;2022-12-18T10:31:05;20.00;;;12.25;;
42840;SDS011;28491;46.898;7.660;2022-12-18T10:33:32;16.48;;;10.98;;
42840;SDS011;28491;46.898;7.660;2022-12-18T10:35:59;21.30;;;11.57;;
42840;SDS011;28491;46.898;7.660;2022-12-18T10:38:28;16.83;;;10.82;;
42840;SDS011;28491;46.898;7.660;2022-12-18T10:41:04;24.83;;;13.02;;
42840;SDS011;28491;46.898;7.660;2022-12-18T10:43:34;20.15;;;11.48;;
42840;SDS011;28491;46.898;7.660;2022-12-18T10:48:34;19.95;;;11.35;;
42840;SDS011;28491;46.898;7.660;2022-12-18T10:51:03;18.73;;;11.60;;
42840;SDS011;28491;46.898;7.660;2022-12-18T10:53:31;17.63;;;9.90;;
42840;SDS011;28491;46.898;7.660;2022-12-18T10:56:00;20.55;;;11.43;;
42840;SDS011;28491;46.898;7.660;2022-12-18T10:58:36;19.25;;;10.77;;
42840;SDS011;28491;46.898;7.660;2022-12-18T11:01:08;20.95;;;11.60;;
42840;SDS011;28491;46.898;7.660;2022-12-18T11:03:41;25.10;;;12.48;;
42840;SDS011;28491;46.898;7.660;2022-12-18T11:06:12;22.98;;;13.85;;
42840;SDS011;28491;46.898;7.660;2022-12-18T11:08:40;23.27;;;14.27;;
42840;SDS011;28491;46.898;7.660;2022-12-18T11:11:14;21.05;;;10.32;;
42840;SDS011;28491;46.898;7.660;2022-12-18T11:13:55;25.80;;;13.13;;
42840;SDS011;28491;46.898;7.660;2022-12-18T11:16:30;24.02;;;13.65;;
42840;SDS011;28491;46.898;7.660;2022-12-18T11:21:47;23.55;;;13.30;;
42840;SDS011;28491;46.898;7.660;2022-12-18T11:24:25;23.52;;;13.23;;
42840;SDS011;28491;46.898;7.660;2022-12-18T11:26:53;20.65;;;11.10;;
42840;SDS011;28491;46.898;7.660;2022-12-18T11:29:22;21.85;;;12.75;;
42840;SDS011;28491;46.898;7.660;2022-12-18T11:32:05;18.00;;;12.27;;
42840;SDS011;28491;46.898;7.660;2022-12-18T11:35:01;18.92;;;11.40;;
42840;SDS011;28491;46.898;7.660;2022-12-18T11:37:34;16.90;;;10.95;;
42840;SDS011;28491;46.898;7.660;2022-12-18T11:40:03;22.77;;;12.35;;
42840;SDS011;28491;46.898;7.660;2022-12-18T11:42:39;18.60;;;10.50;;
42840;SDS011;28491;46.898;7.660;2022-12-18T11:45:30;18.73;;;10.43;;
42840;SDS011;28491;46.898;7.660;2022-12-18T11:48:05;18.08;;;11.35;;
42840;SDS011;28491;46.898;7.660;2022-12-18T11:53:11;18.73;;;9.95;;
42840;SDS011;28491;46.898;7.660;2022-12-18T11:55:42;17.17;;;10.95;;
42840;SDS011;28491;46.898;7.660;2022-12-18T12:01:10;18.60;;;12.13;;
42840;SDS011;28491;46.898;7.660;2022-12-18T12:09:53;19.10;;;10.93;;
42840;SDS011;28491;46.898;7.660;2022-12-18T12:20:39;17.17;;;10.10;;
42840;SDS011;28491;46.898;7.660;2022-12-18T12:26:01;17.05;;;10.40;;
42840;SDS011;28491;46.898;7.660;2022-12-18T12:39:21;18.05;;;10.57;;
42840;SDS011;28491;46.898;7.660;2022-12-18T12:41:51;15.38;;;9.68;;
42840;SDS011;28491;46.898;7.660;2022-12-18T12:44:42;17.30;;;10.07;;
42840;SDS011;28491;46.898;7.660;2022-12-18T12:47:14;17.75;;;11.00;;
42840;SDS011;28491;46.898;7.660;2022-12-18T12:49:45;16.42;;;10.52;;
42840;SDS011;28491;46.898;7.660;2022-12-18T12:52:15;17.23;;;10.70;;
42840;SDS011;28491;46.898;7.660;2022-12-18T12:55:00;19.97;;;11.93;;
42840;SDS011;28491;46.898;7.660;2022-12-18T12:57:36;21.08;;;13.02;;
42840;SDS011;28491;46.898;7.660;2022-12-18T13:00:15;23.48;;;14.32;;
42840;SDS011;28491;46.898;7.660;2022-12-18T13:02:44;27.02;;;12.65;;
42840;SDS011;28491;46.898;7.660;2022-12-18T13:10:51;29.95;;;17.15;;
42840;SDS011;28491;46.898;7.660;2022-12-18T13:13:51;19.83;;;12.02;;
42840;SDS011;28491;46.898;7.660;2022-12-18T13:16:20;19.30;;;11.75;;
42840;SDS011;28491;46.898;7.660;2022-12-18T13:18:51;23.77;;;12.52;;
42840;SDS011;28491;46.898;7.660;2022-12-18T13:21:22;20.83;;;13.10;;
42840;SDS011;28491;46.898;7.660;2022-12-18T13:23:49;19.77;;;12.40;;
42840;SDS011;28491;46.898;7.660;2022-12-18T13:31:12;20.53;;;12.87;;
42840;SDS011;28491;46.898;7.660;2022-12-18T13:39:57;17.70;;;10.95;;
42840;SDS011;28491;46.898;7.660;2022-12-18T13:48:17;18.95;;;12.68;;
42840;SDS011;28491;46.898;7.660;2022-12-18T13:50:52;18.65;;;11.93;;
42840;SDS011;28491;46.898;7.660;2022-12-18T13:53:23;19.80;;;12.63;;
42840;SDS011;28491;46.898;7.660;2022-12-18T13:55:52;20.05;;;11.40;;
42840;SDS011;28491;46.898;7.660;2022-12-18T13:58:18;19.50;;;11.85;;
42840;SDS011;28491;46.898;7.660;2022-12-18T14:00:44;19.55;;;12.52;;
42840;SDS011;28491;46.898;7.660;2022-12-18T14:03:17;23.00;;;13.55;;
42840;SDS011;28491;46.898;7.660;2022-12-18T14:05:54;25.90;;;16.27;;
42840;SDS011;28491;46.898;7.660;2022-12-18T14:08:23;26.65;;;15.02;;
42840;SDS011;28491;46.898;7.660;2022-12-18T14:10:52;17.92;;;11.65;;
42840;SDS011;28491;46.898;7.660;2022-12-18T14:13:31;23.52;;;14.57;;
42840;SDS011;28491;46.898;7.660;2022-12-18T14:16:02;25.98;;;14.23;;
42840;SDS011;28491;46.898;7.660;2022-12-18T14:20:56;21.17;;;13.20;;
42840;SDS011;28491;46.898;7.660;2022-12-18T14:23:27;25.40;;;15.88;;
42840;SDS011;28491;46.898;7.660;2022-12-18T14:26:20;25.42;;;13.63;;
42840;SDS011;28491;46.898;7.660;2022-12-18T14:28:52;29.75;;;13.88;;
42840;SDS011;28491;46.898;7.660;2022-12-18T14:31:19;26.77;;;14.52;;
42840;SDS011;28491;46.898;7.660;2022-12-18T14:33:46;20.83;;;14.32;;
42840;SDS011;28491;46.898;7.660;2022-12-18T14:36:13;25.40;;;15.45;;
42840;SDS011;28491;46.898;7.660;2022-12-18T14:38:42;23.13;;;13.68;;
42840;SDS011;28491;46.898;7.660;2022-12-18T14:43:36;28.77;;;16.77;;
42840;SDS011;28491;46.898;7.660;2022-12-18T14:46:04;22.10;;;13.35;;
42840;SDS011;28491;46.898;7.660;2022-12-18T14:48:49;20.23;;;12.63;;
42840;SDS011;28491;46.898;7.660;2022-12-18T14:51:16;20.55;;;13.48;;
42840;SDS011;28491;46.898;7.660;2022-12-18T14:56:13;25.67;;;14.48;;
42840;SDS011;28491;46.898;7.660;2022-12-18T14:58:45;20.75;;;12.05;;
42840;SDS011;28491;46.898;7.660;2022-12-18T15:04:23;19.90;;;14.40;;
42840;SDS011;28491;46.898;7.660;2022-12-18T15:07:02;21.63;;;13.63;;
42840;SDS011;28491;46.898;7.660;2022-12-18T15:10:02;19.50;;;13.20;;
42840;SDS011;28491;46.898;7.660;2022-12-18T15:15:00;19.42;;;12.40;;
42840;SDS011;28491;46.898;7.660;2022-12-18T15:17:26;22.45;;;13.30;;
42840;SDS011;28491;46.898;7.660;2022-12-18T15:19:53;24.08;;;13.80;;
42840;SDS011;28491;46.898;7.660;2022-12-18T15:24:55;26.05;;;14.85;;
42840;SDS011;28491;46.898;7.660;2022-12-18T15:27:32;27.83;;;16.17;;
42840;SDS011;28491;46.898;7.660;2022-12-18T15:32:34;29.13;;;16.17;;
42840;SDS011;28491;46.898;7.660;2022-12-18T15:37:32;32.15;;;17.38;;
42840;SDS011;28491;46.898;7.660;2022-12-18T15:39:58;32.63;;;17.70;;
42840;SDS011;28491;46.898;7.660;2022-12-18T15:42:24;35.42;;;19.52;;
42840;SDS011;28491;46.898;7.660;2022-12-18T15:45:11;32.05;;;17.48;;
42840;SDS011;28491;46.898;7.660;2022-12-18T15:47:37;30.45;;;17.30;;
42840;SDS011;28491;46.898;7.660;2022-12-18T15:50:03;30.30;;;16.23;;
42840;SDS011;28491;46.898;7.660;2022-12-18T15:52:30;27.15;;;15.65;;
42840;SDS011;28491;46.898;7.660;2022-12-18T15:55:02;29.05;;;18.75;;
42840;SDS011;28491;46.898;7.660;2022-12-18T15:57:46;31.13;;;17.88;;
42840;SDS011;28491;46.898;7.660;2022-12-18T16:00:12;33.15;;;18.00;;
42840;SDS011;28491;46.898;7.660;2022-12-18T16:02:38;50.17;;;23.42;;
42840;SDS011;28491;46.898;7.660;2022-12-18T16:05:05;47.50;;;24.85;;
42840;SDS011;28491;46.898;7.660;2022-12-18T16:07:39;50.17;;;26.33;;
42840;SDS011;28491;46.898;7.660;2022-12-18T16:10:05;50.05;;;24.20;;
42840;SDS011;28491;46.898;7.660;2022-12-18T16:12:31;49.08;;;23.23;;
42840;SDS011;28491;46.898;7.660;2022-12-18T16:14:56;84.32;;;24.70;;
42840;SDS011;28491;46.898;7.660;2022-12-18T16:17:22;63.17;;;23.27;;
42840;SDS011;28491;46.898;7.660;2022-12-18T16:19:47;157.13;;;28.92;;
42840;SDS011;28491;46.898;7.660;2022-12-18T16:22:26;42.55;;;20.92;;
42840;SDS011;28491;46.898;7.660;2022-12-18T16:24:54;48.60;;;22.98;;
42840;SDS011;28491;46.898;7.660;2022-12-18T16:27:21;52.70;;;24.20;;
42840;SDS011;28491;46.898;7.660;2022-12-18T16:29:48;44.00;;;24.00;;
42840;SDS011;28491;46.898;7.660;2022-12-18T16:32:15;52.97;;;23.17;;
42840;SDS011;28491;46.898;7.660;2022-12-18T16:34:43;46.83;;;24.48;;
42840;SDS011;28491;46.898;7.660;2022-12-18T16:37:10;67.32;;;27.83;;
42840;SDS011;28491;46.898;7.660;2022-12-18T16:39:37;71.15;;;26.08;;
42840;SDS011;28491;46.898;7.660;2022-12-18T16:42:13;94.50;;;27.55;;